Time;durP1;ratioP1;P1;durP2;ratioP2;P2;SDS_P1;SDS_P2;PMS_P1;PMS_P2;Temp;Humidity;BMP_temperature;BMP_pressure;BME280_temperature;BME280_humidity;BME280_pressure;Samples;Min_cycle;Max_cycle;Signal;HPM_P1;HPM_P2
2022/08/20 00:03:16;;;;;;;28.55;18.35;;;;;;;;;;10258017;28;20059;-76
2022/08/20 00:08:17;;;;;;;31.70;19.15;;;;;;;;;;10273228;28;20027;-77
2022/08/20 00:13:20;;;;;;;28.25;17.88;;;;;;;;;;10279754;28;20034;-79
2022/08/20 00:18:21;;;;;;;25.92;17.67;;;;;;;;;;10278676;28;20053;-78
2022/08/20 00:23:22;;;;;;;27.55;18.80;;;;;;;;;;10286136;28;20027;-80
2022/08/20 00:28:22;;;;;;;24.27;16.55;;;;;;;;;;10277863;28;20130;-81
2022/08/20 00:33:23;;;;;;;29.27;18.20;;;;;;;;;;10290074;28;20026;-79
2022/08/20 00:38:24;;;;;;;25.55;16.48;;;;;;;;;;10283036;28;20313;-79
2022/08/20 00:43:24;;;;;;;28.75;18.27;;;;;;;;;;10264758;28;20047;-78
2022/08/20 00:48:26;;;;;;;26.08;18.05;;;;;;;;;;10282320;28;20046;-81
2022/08/20 00:53:27;;;;;;;28.60;18.80;;;;;;;;;;10285093;28;20291;-79
2022/08/20 00:58:28;;;;;;;29.02;18.85;;;;;;;;;;10290932;28;20046;-78
2022/08/20 01:03:29;;;;;;;42.10;21.92;;;;;;;;;;10280173;28;20294;-77
2022/08/20 01:08:29;;;;;;;35.70;20.75;;;;;;;;;;10276926;28;20043;-80
2022/08/20 01:13:30;;;;;;;36.58;20.73;;;;;;;;;;10276279;28;20478;-79
2022/08/20 01:18:31;;;;;;;35.83;20.83;;;;;;;;;;10272460;28;20105;-78
2022/08/20 01:23:43;;;;;;;40.67;22.60;;;;;;;;;;10279996;28;20133;-83
2022/08/20 01:28:46;;;;;;;32.67;20.40;;;;;;;;;;10260628;28;20035;-82
2022/08/20 01:33:47;;;;;;;32.65;19.30;;;;;;;;;;10291831;28;20038;-81
2022/08/20 01:38:47;;;;;;;36.58;20.88;;;;;;;;;;10323299;28;20035;-74
2022/08/20 01:43:49;;;;;;;35.28;20.33;;;;;;;;;;10335127;28;20133;-78
2022/08/20 01:48:49;;;;;;;36.63;21.15;;;;;;;;;;10322724;28;20043;-81
2022/08/20 01:53:51;;;;;;;30.92;18.73;;;;;;;;;;10283158;28;20042;-83
2022/08/20 01:58:53;;;;;;;32.42;20.80;;;;;;;;;;10320939;28;20035;-74
2022/08/20 02:03:54;;;;;;;39.83;22.57;;;;;;;;;;10299153;28;20134;-81
2022/08/20 02:08:56;;;;;;;39.15;21.55;;;;;;;;;;10306597;28;20035;-80
2022/08/20 02:13:57;;;;;;;34.45;20.38;;;;;;;;;;10285578;28;20579;-81
2022/08/20 02:19:00;;;;;;;26.30;17.65;;;;;;;;;;10288125;28;20149;-80
2022/08/20 02:24:01;;;;;;;33.47;20.48;;;;;;;;;;10290894;28;20086;-81
2022/08/20 02:29:03;;;;;;;35.90;21.23;;;;;;;;;;10285588;28;20045;-81
2022/08/20 02:34:04;;;;;;;37.30;21.07;;;;;;;;;;10293134;28;20039;-80
2022/08/20 02:39:06;;;;;;;35.55;20.75;;;;;;;;;;10322413;28;20058;-75
2022/08/20 02:44:07;;;;;;;36.00;21.20;;;;;;;;;;10299064;28;20047;-79
2022/08/20 02:49:07;;;;;;;39.58;22.13;;;;;;;;;;10288929;28;20039;-81
2022/08/20 02:54:08;;;;;;;31.53;19.40;;;;;;;;;;10290026;28;20045;-81
2022/08/20 02:59:08;;;;;;;32.60;19.87;;;;;;;;;;10279099;28;20849;-79
2022/08/20 03:04:08;;;;;;;35.80;21.02;;;;;;;;;;10284672;28;20034;-80
2022/08/20 03:09:09;;;;;;;30.50;18.73;;;;;;;;;;10288934;28;20034;-76
2022/08/20 03:14:10;;;;;;;32.25;20.60;;;;;;;;;;10282468;28;20417;-72
2022/08/20 03:19:12;;;;;;;32.95;19.83;;;;;;;;;;10283411;28;20081;-75
2022/08/20 03:24:12;;;;;;;31.67;19.45;;;;;;;;;;10319372;28;20069;-73
2022/08/20 03:29:13;;;;;;;29.38;18.30;;;;;;;;;;10322860;28;20062;-73
2022/08/20 03:34:13;;;;;;;30.75;18.35;;;;;;;;;;10282033;28;20046;-75
2022/08/20 03:39:14;;;;;;;28.42;17.60;;;;;;;;;;10279315;28;20454;-76
2022/08/20 03:44:14;;;;;;;31.83;19.55;;;;;;;;;;10275526;28;20530;-75
2022/08/20 03:49:15;;;;;;;26.73;17.60;;;;;;;;;;10263723;28;20038;-75
2022/08/20 03:54:16;;;;;;;29.02;18.15;;;;;;;;;;10266404;28;20336;-75
2022/08/20 03:59:16;;;;;;;28.08;18.67;;;;;;;;;;10282855;28;20525;-74
2022/08/20 04:04:16;;;;;;;26.60;17.70;;;;;;;;;;10280040;28;20121;-74
2022/08/20 04:09:17;;;;;;;29.08;17.58;;;;;;;;;;10278630;28;20345;-75
2022/08/20 04:14:17;;;;;;;28.40;16.90;;;;;;;;;;10280270;28;20050;-74
2022/08/20 04:19:19;;;;;;;24.80;16.10;;;;;;;;;;10293406;28;20047;-73
2022/08/20 04:24:20;;;;;;;25.98;17.17;;;;;;;;;;10281175;28;20353;-75
2022/08/20 04:29:24;;;;;;;27.70;18.40;;;;;;;;;;10277280;28;20102;-74
2022/08/20 04:34:25;;;;;;;26.23;17.17;;;;;;;;;;10294086;28;20451;-76
2022/08/20 04:39:26;;;;;;;24.40;15.87;;;;;;;;;;10283430;28;20088;-74
2022/08/20 04:44:26;;;;;;;26.17;16.05;;;;;;;;;;10287196;28;20312;-75
2022/08/20 04:49:27;;;;;;;29.08;18.38;;;;;;;;;;10279955;28;20054;-75
2022/08/20 04:54:27;;;;;;;30.35;18.95;;;;;;;;;;10266760;28;20047;-74
2022/08/20 04:59:27;;;;;;;28.53;17.87;;;;;;;;;;10270002;28;20062;-72
2022/08/20 05:04:28;;;;;;;28.98;17.85;;;;;;;;;;10249376;28;20047;-75
2022/08/20 05:09:31;;;;;;;25.93;17.07;;;;;;;;;;10279162;28;20436;-77
2022/08/20 05:14:31;;;;;;;29.30;19.05;;;;;;;;;;10270544;28;20296;-76
2022/08/20 05:19:33;;;;;;;24.50;16.83;;;;;;;;;;10277274;28;20049;-76
2022/08/20 05:24:33;;;;;;;28.77;17.73;;;;;;;;;;10283548;28;20061;-74
2022/08/20 05:29:33;;;;;;;30.27;19.43;;;;;;;;;;10277298;28;20133;-75
2022/08/20 05:34:34;;;;;;;27.23;18.00;;;;;;;;;;10269247;28;20290;-76
2022/08/20 05:39:34;;;;;;;27.03;18.20;;;;;;;;;;10276815;28;20318;-74
2022/08/20 05:44:36;;;;;;;32.80;20.67;;;;;;;;;;10277135;28;20274;-78
2022/08/20 05:49:37;;;;;;;30.07;19.23;;;;;;;;;;10275273;28;20471;-74
2022/08/20 05:54:38;;;;;;;27.20;17.75;;;;;;;;;;10276105;28;20031;-74
2022/08/20 05:59:39;;;;;;;27.38;18.33;;;;;;;;;;10273392;28;20512;-74
2022/08/20 06:04:39;;;;;;;29.08;19.33;;;;;;;;;;10260917;28;20042;-74
2022/08/20 06:09:40;;;;;;;28.95;18.75;;;;;;;;;;10270361;28;20050;-72
2022/08/20 06:14:40;;;;;;;40.75;22.63;;;;;;;;;;10298168;28;20122;-74
2022/08/20 06:19:42;;;;;;;29.50;19.20;;;;;;;;;;10299566;28;20056;-76
2022/08/20 06:24:43;;;;;;;36.20;22.50;;;;;;;;;;10268012;28;20702;-74
2022/08/20 06:29:43;;;;;;;34.08;21.88;;;;;;;;;;10285118;28;20038;-73
2022/08/20 06:34:44;;;;;;;42.20;25.88;;;;;;;;;;10281674;28;20040;-74
2022/08/20 06:39:44;;;;;;;43.40;26.27;;;;;;;;;;10288041;28;20064;-75
2022/08/20 06:44:48;;;;;;;42.70;27.95;;;;;;;;;;10262799;28;20129;-75
2022/08/20 06:49:48;;;;;;;44.33;27.83;;;;;;;;;;10283396;28;20035;-75
2022/08/20 06:54:49;;;;;;;36.40;23.42;;;;;;;;;;10283005;28;20078;-75
2022/08/20 06:59:53;;;;;;;35.43;25.77;;;;;;;;;;10284901;28;20115;-75
2022/08/20 07:04:54;;;;;;;;;;;;;;;;;;10279193;28;20034;-75
2022/08/20 07:09:58;;;;;;;33.30;24.10;;;;;;;;;;10282639;28;19914;-76
2022/08/20 07:14:58;;;;;;;33.05;24.33;;;;;;;;;;10300375;28;20122;-75
2022/08/20 07:20:02;;;;;;;29.37;22.67;;;;;;;;;;10307330;28;20051;-77
2022/08/20 07:25:04;;;;;;;30.25;24.25;;;;;;;;;;10297330;28;20321;-77
2022/08/20 07:35:24;;;;;;;23.42;19.50;;;;;;;;;;10280260;28;20043;-78
2022/08/20 07:40:27;;;;;;;20.63;17.42;;;;;;;;;;10280600;28;20157;-75
2022/08/20 07:45:28;;;;;;;27.07;22.40;;;;;;;;;;10282571;28;20031;-77
2022/08/20 07:50:29;;;;;;;25.27;20.33;;;;;;;;;;10284704;28;20069;-76
2022/08/20 07:55:30;;;;;;;20.08;17.92;;;;;;;;;;10286816;28;20071;-77
2022/08/20 08:00:31;;;;;;;23.88;19.40;;;;;;;;;;10286114;28;20126;-77
2022/08/20 08:05:33;;;;;;;19.50;17.45;;;;;;;;;;10303502;28;20042;-75
2022/08/20 08:10:34;;;;;;;20.10;17.75;;;;;;;;;;10288983;28;20066;-75
2022/08/20 08:15:39;;;;;;;19.92;17.80;;;;;;;;;;10283122;28;20093;-76
2022/08/20 08:20:41;;;;;;;23.48;19.98;;;;;;;;;;10285574;28;20129;-76
2022/08/20 08:25:42;;;;;;;21.30;17.92;;;;;;;;;;10306696;28;20019;-77
2022/08/20 08:30:44;;;;;;;21.38;19.02;;;;;;;;;;10271765;28;20054;-76
2022/08/20 08:35:45;;;;;;;24.67;21.02;;;;;;;;;;10282036;28;20041;-76
2022/08/20 08:40:52;;;;;;;21.63;18.80;;;;;;;;;;10279481;28;20047;-77
2022/08/20 08:46:06;;;;;;;20.38;18.35;;;;;;;;;;10274314;28;20042;-77
2022/08/20 08:51:10;;;;;;;18.73;16.60;;;;;;;;;;10282436;28;20150;-76
2022/08/20 08:56:13;;;;;;;20.92;18.35;;;;;;;;;;10283825;28;20121;-75
2022/08/20 09:01:15;;;;;;;20.80;18.60;;;;;;;;;;10278765;28;20395;-77
2022/08/20 09:06:19;;;;;;;21.15;18.73;;;;;;;;;;10264309;28;20053;-76
2022/08/20 09:11:20;;;;;;;23.65;19.05;;;;;;;;;;10269281;28;20427;-77
2022/08/20 09:16:23;;;;;;;20.73;17.13;;;;;;;;;;10295530;28;20034;-75
2022/08/20 09:21:23;;;;;;;21.05;18.85;;;;;;;;;;10274869;28;20051;-77
2022/08/20 09:26:27;;;;;;;18.35;16.35;;;;;;;;;;10284651;28;20028;-76
2022/08/20 09:31:27;;;;;;;18.33;15.82;;;;;;;;;;10306586;28;20056;-77
2022/08/20 09:36:32;;;;;;;21.95;19.30;;;;;;;;;;10265289;28;20038;-76
2022/08/20 09:41:33;;;;;;;19.80;17.40;;;;;;;;;;10265830;28;20141;-77
2022/08/20 09:46:34;;;;;;;19.63;16.57;;;;;;;;;;10280200;28;20535;-77
2022/08/20 09:51:34;;;;;;;18.42;16.45;;;;;;;;;;10278635;28;20290;-78
2022/08/20 09:56:35;;;;;;;18.67;15.87;;;;;;;;;;10281967;28;20043;-76
2022/08/20 10:01:35;;;;;;;17.38;15.25;;;;;;;;;;10267522;28;20330;-77
2022/08/20 10:06:40;;;;;;;20.83;17.20;;;;;;;;;;10277332;28;20038;-75
2022/08/20 10:11:40;;;;;;;16.58;14.77;;;;;;;;;;10262773;28;20039;-76
2022/08/20 10:16:41;;;;;;;18.92;16.00;;;;;;;;;;10281454;28;20042;-76
2022/08/20 10:21:42;;;;;;;17.63;14.77;;;;;;;;;;10284918;28;20035;-82
2022/08/20 10:26:42;;;;;;;18.20;15.57;;;;;;;;;;10283695;28;20837;-77
2022/08/20 10:31:43;;;;;;;19.73;16.00;;;;;;;;;;10284942;28;20042;-77
2022/08/20 10:36:43;;;;;;;18.13;15.60;;;;;;;;;;10265258;28;20035;-77
2022/08/20 10:41:44;;;;;;;18.65;15.15;;;;;;;;;;10278162;28;20118;-75
2022/08/20 10:46:45;;;;;;;16.07;14.37;;;;;;;;;;10270622;28;20550;-79
2022/08/20 10:51:46;;;;;;;15.47;13.30;;;;;;;;;;10275732;28;20550;-76
2022/08/20 10:56:46;;;;;;;19.23;16.10;;;;;;;;;;10285490;28;20050;-78
2022/08/20 11:01:46;;;;;;;16.73;14.03;;;;;;;;;;10280192;28;20298;-77
2022/08/20 11:06:48;;;;;;;19.88;16.30;;;;;;;;;;10280250;28;20043;-76
2022/08/20 11:11:48;;;;;;;18.05;15.10;;;;;;;;;;10278159;28;20898;-76
2022/08/20 11:16:50;;;;;;;20.07;16.20;;;;;;;;;;10280915;28;20154;-76
2022/08/20 11:21:50;;;;;;;21.67;16.23;;;;;;;;;;10267899;28;20122;-77
2022/08/20 11:26:52;;;;;;;20.20;16.37;;;;;;;;;;10260711;28;20035;-76
2022/08/20 11:31:52;;;;;;;17.42;15.48;;;;;;;;;;10299264;28;20121;-78
2022/08/20 11:36:53;;;;;;;18.30;15.70;;;;;;;;;;10300044;28;20051;-76
2022/08/20 11:41:53;;;;;;;16.15;13.77;;;;;;;;;;10296234;28;20297;-76
2022/08/20 11:46:54;;;;;;;21.60;15.80;;;;;;;;;;10273321;28;20042;-78
2022/08/20 11:51:54;;;;;;;18.40;15.10;;;;;;;;;;10266396;28;20290;-75
2022/08/20 11:56:57;;;;;;;17.03;14.27;;;;;;;;;;10266029;28;20497;-75
2022/08/20 12:01:59;;;;;;;14.82;12.55;;;;;;;;;;10278033;28;20041;-75
2022/08/20 12:07:07;;;;;;;16.23;13.77;;;;;;;;;;10281295;28;20042;-76
2022/08/20 12:12:07;;;;;;;16.10;13.70;;;;;;;;;;10280538;28;20459;-78
2022/08/20 12:17:10;;;;;;;15.47;13.43;;;;;;;;;;10268469;28;20038;-77
2022/08/20 12:22:10;;;;;;;14.25;10.98;;;;;;;;;;10277674;28;20073;-76
2022/08/20 12:27:16;;;;;;;14.10;11.20;;;;;;;;;;10264798;28;20114;-78
2022/08/20 12:32:16;;;;;;;14.38;12.88;;;;;;;;;;10272341;28;20023;-76
2022/08/20 12:37:18;;;;;;;14.50;11.77;;;;;;;;;;10287171;28;20057;-76
2022/08/20 12:42:19;;;;;;;13.88;12.05;;;;;;;;;;10275360;28;20031;-76
2022/08/20 12:47:24;;;;;;;16.13;12.57;;;;;;;;;;10269404;28;20061;-76
2022/08/20 12:52:24;;;;;;;16.27;12.65;;;;;;;;;;10276327;28;20038;-75
2022/08/20 12:57:29;;;;;;;17.98;12.63;;;;;;;;;;10270016;28;20042;-75
2022/08/20 13:02:30;;;;;;;16.23;12.45;;;;;;;;;;10249843;28;20034;-75
2022/08/20 13:07:31;;;;;;;14.82;12.38;;;;;;;;;;10256064;28;20121;-76
2022/08/20 13:12:31;;;;;;;14.20;11.10;;;;;;;;;;10260153;28;20139;-76
2022/08/20 13:17:32;;;;;;;14.60;12.10;;;;;;;;;;10274451;28;20766;-77
2022/08/20 13:22:33;;;;;;;14.10;10.93;;;;;;;;;;10269293;28;20339;-77
2022/08/20 13:27:37;;;;;;;12.67;10.77;;;;;;;;;;10277043;28;20054;-76
2022/08/20 13:32:37;;;;;;;11.90;10.15;;;;;;;;;;10285284;28;20073;-76
2022/08/20 13:37:39;;;;;;;10.90;9.77;;;;;;;;;;10282562;28;20114;-75
2022/08/20 13:42:39;;;;;;;11.97;10.10;;;;;;;;;;10287873;28;20398;-76
2022/08/20 13:47:40;;;;;;;12.30;10.47;;;;;;;;;;10284283;28;20039;-76
2022/08/20 13:52:41;;;;;;;14.55;11.82;;;;;;;;;;10283270;28;20366;-77
2022/08/20 13:57:42;;;;;;;14.45;10.57;;;;;;;;;;10282993;28;20043;-73
2022/08/20 14:02:43;;;;;;;14.43;11.00;;;;;;;;;;10277066;28;20039;-75
2022/08/20 14:07:44;;;;;;;12.23;9.48;;;;;;;;;;10261996;28;20035;-76
2022/08/20 14:12:44;;;;;;;14.50;11.07;;;;;;;;;;10282626;28;20126;-76
2022/08/20 14:17:49;;;;;;;12.67;10.80;;;;;;;;;;10296988;28;20059;-77
2022/08/20 14:22:50;;;;;;;13.93;11.20;;;;;;;;;;10297192;28;20313;-75
2022/08/20 14:27:51;;;;;;;13.23;10.77;;;;;;;;;;10308432;28;20031;-82
2022/08/20 14:32:52;;;;;;;13.65;10.88;;;;;;;;;;10301051;28;20178;-78
2022/08/20 14:37:56;;;;;;;12.90;10.95;;;;;;;;;;10290184;28;20099;-82
2022/08/20 14:42:59;;;;;;;15.82;11.95;;;;;;;;;;10306334;28;20146;-84
2022/08/20 14:48:05;;;;;;;11.93;10.07;;;;;;;;;;10266518;28;20161;-73
2022/08/20 14:53:06;;;;;;;10.23;8.80;;;;;;;;;;10280360;28;20039;-73
2022/08/20 14:58:07;;;;;;;9.32;8.32;;;;;;;;;;10279405;28;20031;-74
2022/08/20 15:03:08;;;;;;;10.10;8.57;;;;;;;;;;10277518;28;20481;-73
2022/08/20 15:08:09;;;;;;;10.65;8.95;;;;;;;;;;10279455;28;20126;-74
2022/08/20 15:13:09;;;;;;;10.07;8.75;;;;;;;;;;10279598;28;20085;-73
2022/08/20 15:18:09;;;;;;;8.52;7.63;;;;;;;;;;10278383;28;20046;-73
2022/08/20 15:23:10;;;;;;;8.50;7.45;;;;;;;;;;10274422;28;20114;-72
2022/08/20 15:28:10;;;;;;;8.73;6.60;;;;;;;;;;10277045;28;20046;-74
2022/08/20 15:33:11;;;;;;;7.72;6.47;;;;;;;;;;10273948;28;20066;-72
2022/08/20 15:38:11;;;;;;;7.35;5.93;;;;;;;;;;10277685;28;20035;-77
2022/08/20 15:43:12;;;;;;;9.23;7.55;;;;;;;;;;10277918;28;20043;-76
2022/08/20 15:48:14;;;;;;;6.63;5.95;;;;;;;;;;10258119;28;20324;-77
2022/08/20 15:53:30;;;;;;;6.70;6.10;;;;;;;;;;10258182;28;20121;-80
2022/08/20 15:58:37;;;;;;;7.57;6.47;;;;;;;;;;10254713;28;20085;-78
2022/08/20 16:03:56;;;;;;;10.70;7.97;;;;;;;;;;10256288;28;20031;-77
2022/08/20 16:09:12;;;;;;;12.40;8.60;;;;;;;;;;10267398;28;20038;-74
2022/08/20 16:14:17;;;;;;;7.70;6.40;;;;;;;;;;10270488;28;20046;-73
2022/08/20 16:19:21;;;;;;;8.38;5.80;;;;;;;;;;10272244;28;20333;-71
2022/08/20 16:24:21;;;;;;;7.57;6.15;;;;;;;;;;10265391;28;20129;-73
2022/08/20 16:29:32;;;;;;;6.72;5.28;;;;;;;;;;10275327;28;20484;-73
2022/08/20 16:34:41;;;;;;;5.68;5.13;;;;;;;;;;10279339;28;20061;-72
2022/08/20 16:39:50;;;;;;;9.07;7.32;;;;;;;;;;10268692;28;20041;-73
2022/08/20 16:44:52;;;;;;;6.05;4.55;;;;;;;;;;10272472;28;20047;-73
2022/08/20 16:49:57;;;;;;;6.15;4.50;;;;;;;;;;10271054;28;20780;-74
2022/08/20 16:54:57;;;;;;;5.45;3.90;;;;;;;;;;10279523;28;20133;-74
2022/08/20 17:00:13;;;;;;;4.35;3.95;;;;;;;;;;10266743;28;20049;-75
2022/08/20 17:05:14;;;;;;;5.45;4.07;;;;;;;;;;10274866;28;20061;-80
2022/08/20 17:10:20;;;;;;;4.40;3.47;;;;;;;;;;10281288;28;20114;-78
2022/08/20 17:15:28;;;;;;;3.75;3.33;;;;;;;;;;10278935;28;20079;-80
2022/08/20 17:20:29;;;;;;;4.93;3.42;;;;;;;;;;10276757;28;20038;-77
2022/08/20 17:25:32;;;;;;;3.80;3.40;;;;;;;;;;10269738;28;20038;-77
2022/08/20 17:30:34;;;;;;;4.57;3.75;;;;;;;;;;10275695;28;20707;-76
2022/08/20 17:35:39;;;;;;;3.92;3.45;;;;;;;;;;10267624;28;20043;-79
2022/08/20 17:40:44;;;;;;;4.05;3.30;;;;;;;;;;10273411;28;20122;-76
2022/08/20 17:45:45;;;;;;;4.10;3.70;;;;;;;;;;10268682;28;20073;-77
2022/08/20 17:50:45;;;;;;;4.68;3.95;;;;;;;;;;10276010;28;20113;-76
2022/08/20 17:55:47;;;;;;;3.80;3.40;;;;;;;;;;10278029;28;20113;-74
2022/08/20 18:00:49;;;;;;;5.10;4.05;;;;;;;;;;10272871;28;20045;-74
2022/08/20 18:05:55;;;;;;;5.35;4.03;;;;;;;;;;10272840;28;20047;-75
2022/08/20 18:11:11;;;;;;;4.25;3.67;;;;;;;;;;10268396;28;20027;-74
2022/08/20 18:16:15;;;;;;;4.43;3.67;;;;;;;;;;10261458;28;20336;-75
2022/08/20 18:21:18;;;;;;;4.57;4.10;;;;;;;;;;10259668;28;20054;-76
2022/08/20 18:26:28;;;;;;;5.57;4.28;;;;;;;;;;10283316;28;20046;-76
2022/08/20 18:31:30;;;;;;;7.00;4.60;;;;;;;;;;10280472;28;20049;-76
2022/08/20 18:36:31;;;;;;;6.40;4.57;;;;;;;;;;10281495;28;20209;-76
2022/08/20 18:41:37;;;;;;;4.53;3.85;;;;;;;;;;10289823;28;20803;-75
2022/08/20 18:46:49;;;;;;;4.45;4.07;;;;;;;;;;10280777;28;20054;-73
2022/08/20 18:51:50;;;;;;;4.95;4.45;;;;;;;;;;10282060;28;20046;-73
2022/08/20 18:57:00;;;;;;;8.25;5.32;;;;;;;;;;10258163;28;20145;-69
2022/08/20 19:02:12;;;;;;;6.47;5.30;;;;;;;;;;10278874;28;20318;-73
2022/08/20 19:07:14;;;;;;;6.18;5.15;;;;;;;;;;10263230;28;20034;-73
2022/08/20 19:12:30;;;;;;;7.53;4.60;;;;;;;;;;10274884;28;20110;-71
2022/08/20 19:17:36;;;;;;;5.63;4.28;;;;;;;;;;10280833;28;20309;-72
2022/08/20 19:22:38;;;;;;;5.82;4.45;;;;;;;;;;10278232;28;20311;-71
2022/08/20 19:27:38;;;;;;;4.15;3.75;;;;;;;;;;10283112;28;20383;-70
2022/08/20 19:32:48;;;;;;;5.00;3.65;;;;;;;;;;10263201;28;20093;-70
2022/08/20 19:37:49;;;;;;;5.38;4.05;;;;;;;;;;10280416;28;20499;-70
2022/08/20 19:42:50;;;;;;;5.30;4.20;;;;;;;;;;10258593;28;20051;-70
2022/08/20 19:47:53;;;;;;;6.32;4.20;;;;;;;;;;10275787;28;20346;-71
2022/08/20 19:52:59;;;;;;;5.13;4.40;;;;;;;;;;10271591;28;20049;-71
2022/08/20 19:58:01;;;;;;;6.13;4.57;;;;;;;;;;10261747;28;20475;-70
2022/08/20 20:03:13;;;;;;;5.87;4.07;;;;;;;;;;10277330;28;20050;-73
2022/08/20 20:08:46;;;;;;;;;;;;;;;;;;10281950;28;20039;-71
2022/08/20 20:14:23;;;;;;;4.50;4.10;;;;;;;;;;10265299;28;19915;-73
2022/08/20 20:19:58;;;;;;;8.10;4.65;;;;;;;;;;10278616;28;20034;-72
2022/08/20 20:25:32;;;;;;;;;;;;;;;;;;10278666;28;20050;-72
2022/08/20 20:30:33;;;;;;;5.35;4.55;;;;;;;;;;10281975;28;19965;-73
2022/08/20 20:35:34;;;;;;;7.28;4.82;;;;;;;;;;10276850;28;20144;-71
2022/08/20 20:40:46;;;;;;;7.22;5.18;;;;;;;;;;10277531;28;20046;-74
2022/08/20 20:45:57;;;;;;;8.20;6.05;;;;;;;;;;10267794;28;20048;-70
2022/08/20 20:50:58;;;;;;;8.18;5.65;;;;;;;;;;10279121;28;20356;-74
2022/08/20 20:55:59;;;;;;;6.00;5.20;;;;;;;;;;10257046;28;20050;-71
2022/08/20 21:00:59;;;;;;;6.65;5.80;;;;;;;;;;10273584;28;20035;-73
2022/08/20 21:05:59;;;;;;;7.50;5.47;;;;;;;;;;10275030;28;20046;-73
2022/08/20 21:11:00;;;;;;;7.10;5.83;;;;;;;;;;10246711;28;20290;-73
2022/08/20 21:16:00;;;;;;;6.15;5.00;;;;;;;;;;10279076;28;20614;-74
2022/08/20 21:21:04;;;;;;;5.95;5.25;;;;;;;;;;10269045;28;20145;-72
2022/08/20 21:26:04;;;;;;;8.10;5.88;;;;;;;;;;10270101;28;20517;-73
2022/08/20 21:31:05;;;;;;;7.63;5.70;;;;;;;;;;10278132;28;20039;-75
2022/08/20 21:36:05;;;;;;;7.93;6.38;;;;;;;;;;10277655;28;20042;-72
2022/08/20 21:41:06;;;;;;;11.65;7.47;;;;;;;;;;10275424;28;20026;-72
2022/08/20 21:46:08;;;;;;;8.88;6.88;;;;;;;;;;10257768;28;20069;-75
2022/08/20 21:51:10;;;;;;;10.15;7.63;;;;;;;;;;10280903;28;20081;-72
2022/08/20 21:56:10;;;;;;;8.35;6.80;;;;;;;;;;10281500;28;20747;-76
2022/08/20 22:01:11;;;;;;;8.60;6.50;;;;;;;;;;10276038;28;20057;-73
2022/08/20 22:06:12;;;;;;;9.07;6.22;;;;;;;;;;10271385;28;20133;-75
2022/08/20 22:11:12;;;;;;;7.55;5.78;;;;;;;;;;10283680;28;20120;-75
2022/08/20 22:16:14;;;;;;;6.95;5.80;;;;;;;;;;10282114;28;20768;-80
2022/08/20 22:21:23;;;;;;;8.85;6.07;;;;;;;;;;10249397;28;20131;-72
2022/08/20 22:26:23;;;;;;;7.43;6.40;;;;;;;;;;10280007;28;20046;-73
2022/08/20 22:31:31;;;;;;;9.93;6.55;;;;;;;;;;10266111;28;20050;-74
2022/08/20 22:36:32;;;;;;;8.50;6.40;;;;;;;;;;10286882;28;20528;-74
2022/08/20 22:41:33;;;;;;;7.68;6.03;;;;;;;;;;10263828;28;20048;-72
2022/08/20 22:46:35;;;;;;;9.93;7.18;;;;;;;;;;10273482;28;20055;-73
2022/08/20 22:51:36;;;;;;;7.47;6.25;;;;;;;;;;10267082;28;20057;-72
2022/08/20 22:56:36;;;;;;;8.57;6.97;;;;;;;;;;10282053;28;20467;-72
2022/08/20 23:01:37;;;;;;;11.32;7.30;;;;;;;;;;10251724;28;20078;-71
2022/08/20 23:06:37;;;;;;;8.73;7.32;;;;;;;;;;10258890;28;20038;-78
2022/08/20 23:11:38;;;;;;;9.35;6.90;;;;;;;;;;10256042;28;20038;-74
2022/08/20 23:16:40;;;;;;;9.85;6.88;;;;;;;;;;10258825;28;20432;-73
2022/08/20 23:21:41;;;;;;;9.70;6.93;;;;;;;;;;10276516;28;20366;-74
2022/08/20 23:26:41;;;;;;;9.88;7.20;;;;;;;;;;10271072;28;20039;-75
2022/08/20 23:31:42;;;;;;;8.45;6.97;;;;;;;;;;10272947;28;20047;-72
2022/08/20 23:36:43;;;;;;;9.88;7.65;;;;;;;;;;10262681;28;20133;-79
2022/08/20 23:41:44;;;;;;;8.10;6.38;;;;;;;;;;10277838;28;20077;-77
2022/08/20 23:46:44;;;;;;;9.65;6.90;;;;;;;;;;10284796;28;20070;-73
2022/08/20 23:51:45;;;;;;;11.32;8.05;;;;;;;;;;10274518;28;20046;-73
2022/08/20 23:56:45;;;;;;;8.63;6.25;;;;;;;;;;10274007;28;20031;-72
